createdAt,value
2023-04-12T00:02:04.761Z,3.80
2023-04-12T00:04:34.525Z,3.80
2023-04-12T00:07:02.830Z,3.77
2023-04-12T00:09:30.461Z,3.70
2023-04-12T00:11:58.447Z,3.68
2023-04-12T00:14:25.925Z,3.67
2023-04-12T00:16:52.956Z,3.72
2023-04-12T00:19:19.982Z,3.73
2023-04-12T00:21:47.030Z,3.61
2023-04-12T00:24:14.057Z,3.67
2023-04-12T00:26:41.154Z,3.69
2023-04-12T00:29:08.208Z,3.73
2023-04-12T00:31:35.420Z,3.70
2023-04-12T00:34:03.151Z,3.66
2023-04-12T00:36:30.696Z,3.47
2023-04-12T00:38:57.807Z,3.49
2023-04-12T00:41:26.321Z,3.58
2023-04-12T00:43:53.410Z,3.71
2023-04-12T00:46:20.825Z,3.82
2023-04-12T00:48:48.305Z,3.77
2023-04-12T00:51:18.155Z,3.77
2023-04-12T00:53:46.266Z,3.78
2023-04-12T00:56:13.542Z,3.72
2023-04-12T00:58:40.624Z,3.70
2023-04-12T01:01:07.834Z,3.75
2023-04-12T01:03:35.104Z,3.75
2023-04-12T01:06:21.242Z,3.75
2023-04-12T01:08:55.822Z,3.69
2023-04-12T01:11:23.353Z,3.61
2023-04-12T01:14:08.011Z,3.66
2023-04-12T01:16:42.139Z,3.65
2023-04-12T01:19:19.598Z,3.64
2023-04-12T01:22:00.951Z,3.63
2023-04-12T01:24:46.974Z,3.68
2023-04-12T01:27:29.866Z,3.59
2023-04-12T01:29:58.137Z,3.56
2023-04-12T01:32:26.893Z,3.58
2023-04-12T01:34:55.812Z,3.61
2023-04-12T01:37:23.089Z,3.64
2023-04-12T01:39:50.485Z,3.66
2023-04-12T01:42:21.397Z,3.63
2023-04-12T01:44:49.017Z,3.57
2023-04-12T01:47:16.320Z,3.50
2023-04-12T01:50:02.255Z,3.51
2023-04-12T01:52:31.091Z,3.62
2023-04-12T01:55:02.522Z,3.63
2023-04-12T01:57:33.094Z,3.65
2023-04-12T02:00:02.268Z,3.69
2023-04-12T02:02:30.489Z,3.67
2023-04-12T02:05:00.256Z,3.67
2023-04-12T02:07:27.870Z,3.69
2023-04-12T02:09:54.918Z,3.70
2023-04-12T02:12:22.736Z,3.69
2023-04-12T02:14:52.098Z,3.66
2023-04-12T02:17:20.073Z,3.59
2023-04-12T02:19:47.577Z,3.58
2023-04-12T02:22:16.732Z,3.59
2023-04-12T02:24:43.775Z,3.66
2023-04-12T02:27:11.784Z,3.46
2023-04-12T02:29:38.782Z,3.29
2023-04-12T02:32:06.346Z,3.25
2023-04-12T02:34:36.493Z,3.36
2023-04-12T02:37:17.739Z,3.42
2023-04-12T02:39:44.913Z,3.29
2023-04-12T02:42:12.274Z,3.39
2023-04-12T02:44:41.166Z,3.43
2023-04-12T02:47:12.154Z,3.45
2023-04-12T02:49:41.079Z,3.52
2023-04-12T02:52:08.976Z,3.55
2023-04-12T02:57:38.065Z,3.62
2023-04-12T03:00:11.886Z,3.61
2023-04-12T03:02:42.824Z,3.60
2023-04-12T03:05:17.603Z,3.64
2023-04-12T03:07:45.045Z,3.65
2023-04-12T03:10:12.797Z,3.65
2023-04-12T03:12:55.317Z,3.66
2023-04-12T03:15:23.550Z,3.64
2023-04-12T03:17:52.793Z,3.64
2023-04-12T03:20:25.967Z,3.63
2023-04-12T03:23:01.624Z,3.63
2023-04-12T03:25:30.485Z,3.65
2023-04-12T03:28:17.585Z,3.72
2023-04-12T03:30:50.656Z,3.71
2023-04-12T03:33:20.954Z,3.71
2023-04-12T03:35:48.895Z,3.73
2023-04-12T03:38:16.262Z,3.74
2023-04-12T03:40:43.965Z,3.78
2023-04-12T03:43:11.272Z,3.82
2023-04-12T03:45:38.377Z,3.77
2023-04-12T03:48:06.863Z,3.74
2023-04-12T03:50:44.786Z,3.74
2023-04-12T03:53:18.553Z,3.76
2023-04-12T03:55:47.148Z,3.79
2023-04-12T03:58:16.274Z,3.83
2023-04-12T04:00:46.681Z,3.81
2023-04-12T04:03:15.149Z,3.83
2023-04-12T04:05:47.787Z,3.85
2023-04-12T04:08:17.140Z,3.86
2023-04-12T04:10:50.810Z,3.85
2023-04-12T04:13:18.693Z,3.84
2023-04-12T04:15:46.353Z,3.85
2023-04-12T04:18:13.550Z,3.88
2023-04-12T04:20:40.636Z,3.88
2023-04-12T04:23:10.304Z,3.90
2023-04-12T04:25:40.028Z,3.91
2023-04-12T04:28:09.794Z,3.97
2023-04-12T04:30:39.077Z,3.96
2023-04-12T04:33:09.181Z,3.95
2023-04-12T04:35:39.290Z,3.97
2023-04-12T04:38:32.574Z,4.00
2023-04-12T04:41:09.196Z,4.01
2023-04-12T04:43:56.724Z,4.01
2023-04-12T04:46:30.470Z,4.07
2023-04-12T04:48:58.731Z,4.07
2023-04-12T04:51:25.872Z,4.06
2023-04-12T04:53:55.529Z,4.07
2023-04-12T04:56:23.352Z,4.05
2023-04-12T04:58:52.928Z,4.01
2023-04-12T05:01:25.819Z,4.04
2023-04-12T05:03:55.696Z,4.05
2023-04-12T05:06:24.006Z,4.06
2023-04-12T05:08:52.552Z,4.08
2023-04-12T05:11:20.291Z,4.07
2023-04-12T05:13:47.967Z,4.08
2023-04-12T05:16:15.629Z,4.11
2023-04-12T05:18:42.756Z,4.16
2023-04-12T05:21:09.899Z,4.14
2023-04-12T05:23:37.932Z,4.19
2023-04-12T05:26:05.465Z,4.18
2023-04-12T05:28:32.833Z,4.20
2023-04-12T05:31:00.033Z,4.23
2023-04-12T05:33:34.644Z,4.26
2023-04-12T05:36:02.652Z,4.28
2023-04-12T05:38:31.340Z,4.31
2023-04-12T05:41:04.711Z,4.33
2023-04-12T05:43:33.522Z,4.37
2023-04-12T05:46:00.652Z,4.37
2023-04-12T05:48:28.446Z,4.36
2023-04-12T05:50:57.784Z,4.37
2023-04-12T05:53:24.898Z,4.43
2023-04-12T05:55:52.023Z,4.50
2023-04-12T05:58:20.131Z,4.49
2023-04-12T06:00:50.039Z,4.52
2023-04-12T06:03:17.328Z,4.55
2023-04-12T06:05:44.630Z,4.57
2023-04-12T06:08:12.927Z,4.59
2023-04-12T06:10:42.447Z,4.64
2023-04-12T06:13:09.678Z,4.59
2023-04-12T06:15:41.416Z,4.56
2023-04-12T06:18:08.992Z,4.53
2023-04-12T06:20:38.824Z,4.57
2023-04-12T06:23:06.596Z,4.61
2023-04-12T06:25:34.368Z,4.63
2023-04-12T06:28:01.708Z,4.64
2023-04-12T06:30:29.065Z,4.68
2023-04-12T06:32:57.206Z,4.66
2023-04-12T06:35:24.463Z,4.68
2023-04-12T06:37:51.888Z,4.69
2023-04-12T06:40:19.032Z,4.75
2023-04-12T06:42:46.148Z,4.72
2023-04-12T06:45:13.198Z,4.73
2023-04-12T06:47:40.518Z,4.75
2023-04-12T06:50:07.825Z,4.78
2023-04-12T06:52:35.040Z,4.81
2023-04-12T06:55:02.196Z,4.77
2023-04-12T06:57:29.307Z,4.77
2023-04-12T06:59:56.584Z,4.85
2023-04-12T07:02:23.704Z,4.82
2023-04-12T07:04:54.537Z,4.83
2023-04-12T07:07:21.766Z,4.79
2023-04-12T07:09:48.972Z,4.85
2023-04-12T07:12:16.275Z,4.86
2023-04-12T07:14:44.768Z,4.82
2023-04-12T07:17:12.025Z,4.88
2023-04-12T07:19:39.621Z,4.90
2023-04-12T07:22:06.738Z,4.88
2023-04-12T07:24:33.907Z,4.97
2023-04-12T07:27:01.308Z,4.98
2023-04-12T07:29:28.479Z,4.94
2023-04-12T07:31:55.657Z,5.01
2023-04-12T07:34:24.029Z,5.04
2023-04-12T07:36:51.403Z,5.05
2023-04-12T07:39:18.519Z,5.13
2023-04-12T07:41:46.430Z,5.15
2023-04-12T07:44:13.733Z,5.17
2023-04-12T07:46:41.892Z,5.08
2023-04-12T07:49:10.589Z,5.16
2023-04-12T07:51:37.705Z,5.21
2023-04-12T07:54:05.524Z,5.27
2023-04-12T07:56:33.860Z,5.34
2023-04-12T07:59:01.198Z,5.35
2023-04-12T08:01:28.480Z,5.30
2023-04-12T08:03:56.072Z,5.37
2023-04-12T08:06:23.499Z,5.42
2023-04-12T08:08:50.683Z,5.46
2023-04-12T08:11:17.792Z,5.53
2023-04-12T08:13:44.980Z,5.56
2023-04-12T08:16:13.267Z,5.61
2023-04-12T08:18:40.417Z,5.56
2023-04-12T08:21:07.594Z,5.61
2023-04-12T08:23:34.631Z,5.73
2023-04-12T08:26:04.711Z,5.70
2023-04-12T08:28:32.580Z,5.79
2023-04-12T08:30:59.815Z,5.73
2023-04-12T08:33:27.260Z,5.84
2023-04-12T08:35:55.224Z,5.83
2023-04-12T08:38:30.727Z,5.91
2023-04-12T08:41:07.850Z,5.99
2023-04-12T08:43:35.010Z,5.93
2023-04-12T08:46:02.247Z,5.96
2023-04-12T08:48:29.445Z,5.97
2023-04-12T08:50:57.762Z,5.98
2023-04-12T08:53:25.012Z,6.03
2023-04-12T08:55:52.203Z,6.17
2023-04-12T08:58:20.763Z,6.14
2023-04-12T09:00:48.015Z,6.14
2023-04-12T09:03:15.697Z,6.18
2023-04-12T09:05:42.892Z,6.36
2023-04-12T09:08:10.063Z,6.35
2023-04-12T09:10:38.120Z,6.22
2023-04-12T09:13:05.889Z,6.26
2023-04-12T09:15:33.996Z,6.24
2023-04-12T09:18:05.301Z,6.29
2023-04-12T09:20:32.383Z,6.29
2023-04-12T09:22:59.576Z,6.56
2023-04-12T09:25:36.903Z,6.57
2023-04-12T09:28:04.586Z,6.52
2023-04-12T09:30:40.739Z,6.42
2023-04-12T09:33:11.755Z,6.42
2023-04-12T09:35:39.395Z,6.31
2023-04-12T09:38:10.052Z,6.53
2023-04-12T09:40:37.429Z,6.53
2023-04-12T09:43:04.968Z,6.59
2023-04-12T09:45:34.387Z,6.62
2023-04-12T09:48:01.458Z,6.54
2023-04-12T09:50:29.542Z,6.58
2023-04-12T09:52:57.458Z,6.79
2023-04-12T09:55:29.643Z,6.75
2023-04-12T09:57:56.979Z,6.73
2023-04-12T10:00:26.720Z,6.63
2023-04-12T10:02:55.316Z,6.75
2023-04-12T10:05:25.593Z,6.63
2023-04-12T10:07:54.800Z,6.56
2023-04-12T10:10:22.495Z,6.59
2023-04-12T10:12:50.246Z,6.63
2023-04-12T10:15:18.298Z,6.44
2023-04-12T10:17:47.851Z,6.54
2023-04-12T10:20:15.853Z,6.69
2023-04-12T10:22:45.565Z,6.70
2023-04-12T10:25:17.521Z,6.82
2023-04-12T10:27:45.071Z,6.94
2023-04-12T10:30:28.708Z,6.91
2023-04-12T10:33:02.106Z,7.00
2023-04-12T10:35:29.793Z,6.97
2023-04-12T10:38:04.333Z,7.01
2023-04-12T10:40:32.545Z,7.15
2023-04-12T10:43:18.185Z,7.12
2023-04-12T10:45:46.058Z,7.28
2023-04-12T10:48:32.203Z,7.28
2023-04-12T10:51:25.820Z,7.20
2023-04-12T10:54:14.646Z,7.10
2023-04-12T10:56:42.601Z,6.93
2023-04-12T10:59:14.932Z,6.99
2023-04-12T11:02:03.388Z,7.09
2023-04-12T11:04:30.875Z,7.07
2023-04-12T11:07:20.961Z,7.06
2023-04-12T11:10:12.246Z,7.02
2023-04-12T11:12:39.349Z,7.19
2023-04-12T11:15:06.865Z,7.16
2023-04-12T11:17:54.931Z,7.30
2023-04-12T11:20:22.391Z,7.24
2023-04-12T11:22:51.542Z,7.25
2023-04-12T11:25:18.890Z,7.28
2023-04-12T11:27:50.334Z,7.21
2023-04-12T11:30:17.782Z,7.25
2023-04-12T11:32:45.548Z,7.18
2023-04-12T11:35:14.433Z,7.25
2023-04-12T11:37:41.627Z,7.21
2023-04-12T11:40:09.353Z,7.17
2023-04-12T11:42:39.341Z,7.30
2023-04-12T11:45:14.216Z,7.27
2023-04-12T11:47:44.475Z,7.39
2023-04-12T11:50:12.003Z,7.47
2023-04-12T11:52:41.082Z,7.49
2023-04-12T11:55:11.030Z,7.47
2023-04-12T11:57:38.807Z,7.51
2023-04-12T12:00:06.882Z,7.40
2023-04-12T12:02:48.878Z,7.48
2023-04-12T12:05:24.054Z,7.54
2023-04-12T12:07:52.761Z,7.51
2023-04-12T12:10:37.854Z,7.67
2023-04-12T12:13:11.441Z,7.67
2023-04-12T12:15:38.670Z,7.64
2023-04-12T12:18:09.523Z,7.79
2023-04-12T12:20:40.490Z,7.98
2023-04-12T12:23:07.742Z,8.35
2023-04-12T12:25:34.761Z,8.11
2023-04-12T12:28:05.373Z,8.02
2023-04-12T12:30:39.878Z,8.04
2023-04-12T12:33:07.241Z,8.11
2023-04-12T12:35:34.600Z,8.13
2023-04-12T12:38:06.719Z,8.10
2023-04-12T12:40:33.837Z,8.10
2023-04-12T12:43:01.139Z,8.26
2023-04-12T12:45:29.328Z,8.47
2023-04-12T12:47:59.736Z,8.58
2023-04-12T12:50:27.977Z,8.62
2023-04-12T12:52:55.671Z,8.73
2023-04-12T12:55:23.758Z,8.70
2023-04-12T12:58:06.628Z,8.66
2023-04-12T13:00:35.345Z,8.86
2023-04-12T13:03:03.191Z,8.93
2023-04-12T13:05:30.904Z,8.88
2023-04-12T13:07:58.103Z,8.96
2023-04-12T13:10:27.065Z,8.89
2023-04-12T13:12:54.135Z,9.02
2023-04-12T13:15:23.852Z,9.10
2023-04-12T13:17:52.007Z,9.11
2023-04-12T13:20:19.173Z,8.90
2023-04-12T13:22:46.265Z,9.14
2023-04-12T13:25:13.412Z,9.14
2023-04-12T13:27:40.562Z,9.14
2023-04-12T13:30:08.434Z,9.16
2023-04-12T13:32:35.982Z,9.19
2023-04-12T13:35:03.485Z,9.23
2023-04-12T13:37:31.077Z,9.28
2023-04-12T13:39:58.186Z,9.20
2023-04-12T13:42:25.473Z,9.24
2023-04-12T13:44:52.646Z,9.25
2023-04-12T13:47:19.773Z,9.30
2023-04-12T13:49:46.873Z,9.44
2023-04-12T13:52:14.136Z,9.55
2023-04-12T13:54:43.045Z,9.64
2023-04-12T13:57:10.196Z,9.64
2023-04-12T13:59:37.451Z,9.54
2023-04-12T14:02:04.612Z,9.47
2023-04-12T14:04:31.997Z,9.53
2023-04-12T14:06:59.181Z,9.58
2023-04-12T14:09:29.984Z,9.67
2023-04-12T14:11:58.132Z,9.54
2023-04-12T14:14:26.174Z,9.51
2023-04-12T14:16:54.827Z,9.54
2023-04-12T14:19:22.023Z,9.60
2023-04-12T14:21:49.443Z,9.55
2023-04-12T14:24:16.993Z,9.62
2023-04-12T14:26:46.673Z,9.58
2023-04-12T14:29:14.099Z,9.63
2023-04-12T14:31:41.259Z,9.65
2023-04-12T14:34:08.963Z,9.57
2023-04-12T14:36:36.334Z,9.55
2023-04-12T14:39:04.126Z,9.53
2023-04-12T14:41:31.642Z,9.50
2023-04-12T14:43:59.770Z,9.63
2023-04-12T14:46:29.444Z,9.71
2023-04-12T14:48:57.361Z,9.68
2023-04-12T14:51:24.585Z,9.65
2023-04-12T14:53:51.817Z,9.54
2023-04-12T14:56:22.352Z,9.51
2023-04-12T14:58:53.682Z,9.51
2023-04-12T15:01:21.239Z,9.49
2023-04-12T15:03:50.832Z,9.56
2023-04-12T15:06:18.603Z,9.55
2023-04-12T15:08:45.801Z,9.60
2023-04-12T15:11:15.119Z,9.66
2023-04-12T15:13:44.263Z,9.59
2023-04-12T15:16:15.006Z,9.60
2023-04-12T15:18:42.264Z,9.61
2023-04-12T15:21:10.437Z,9.65
2023-04-12T15:23:38.961Z,9.66
2023-04-12T15:26:09.357Z,9.68
2023-04-12T15:28:36.604Z,9.57
2023-04-12T15:31:04.554Z,9.55
2023-04-12T15:33:34.463Z,9.60
2023-04-12T15:36:02.242Z,9.62
2023-04-12T15:38:29.947Z,9.64
2023-04-12T15:40:58.969Z,9.67
2023-04-12T15:43:26.541Z,9.63
2023-04-12T15:45:54.701Z,9.59
2023-04-12T15:48:23.167Z,9.58
2023-04-12T15:50:51.452Z,9.65
2023-04-12T15:53:20.578Z,9.68
2023-04-12T15:55:47.774Z,9.72
2023-04-12T15:58:14.820Z,9.80
2023-04-12T16:00:42.443Z,9.74
2023-04-12T16:03:09.923Z,9.77
2023-04-12T16:05:37.143Z,9.80
2023-04-12T16:08:04.299Z,9.73
2023-04-12T16:10:32.079Z,9.83
2023-04-12T16:12:59.510Z,9.85
2023-04-12T16:15:26.697Z,9.84
2023-04-12T16:17:54.569Z,9.90
2023-04-12T16:20:22.254Z,9.89
2023-04-12T16:22:50.331Z,9.95
2023-04-12T16:25:17.434Z,9.90
2023-04-12T16:27:45.027Z,9.92
2023-04-12T16:30:13.592Z,9.98
2023-04-12T16:32:41.097Z,9.95
2023-04-12T16:35:08.501Z,9.97
2023-04-12T16:37:37.592Z,9.98
2023-04-12T16:40:08.001Z,9.93
2023-04-12T16:42:35.408Z,9.95
2023-04-12T16:47:27.717Z,10.10
2023-04-12T16:49:54.964Z,10.09
2023-04-12T16:52:22.180Z,10.12
2023-04-12T16:54:49.216Z,10.06
2023-04-12T16:57:17.291Z,10.02
2023-04-12T16:59:44.951Z,9.97
2023-04-12T17:02:12.639Z,9.96
2023-04-12T17:04:39.875Z,9.92
2023-04-12T17:07:07.040Z,9.94
2023-04-12T17:09:34.121Z,9.95
2023-04-12T17:12:01.368Z,9.89
2023-04-12T17:14:29.609Z,9.90
2023-04-12T17:16:57.359Z,9.82
2023-04-12T17:19:24.454Z,9.82
2023-04-12T17:21:51.563Z,9.76
2023-04-12T17:24:18.780Z,9.68
2023-04-12T17:26:46.683Z,9.65
2023-04-12T17:29:14.587Z,9.63
2023-04-12T17:31:42.717Z,9.61
2023-04-12T17:34:09.820Z,9.57
2023-04-12T17:36:38.229Z,9.56
2023-04-12T17:39:05.404Z,9.55
2023-04-12T17:41:32.636Z,9.54
2023-04-12T17:44:00.323Z,9.52
2023-04-12T17:46:27.445Z,9.59
2023-04-12T17:48:54.625Z,9.80
2023-04-12T17:52:17.327Z,9.73
2023-04-12T17:54:44.843Z,9.28
2023-04-12T17:57:12.229Z,9.30
2023-04-12T17:59:39.430Z,9.21
2023-04-12T18:02:07.081Z,9.25
2023-04-12T18:04:34.537Z,9.14
2023-04-12T18:07:01.694Z,8.93
2023-04-12T18:09:28.789Z,8.72
2023-04-12T18:11:56.590Z,8.54
2023-04-12T18:14:23.766Z,8.40
2023-04-12T18:16:50.947Z,8.29
2023-04-12T18:19:19.134Z,8.30
2023-04-12T18:21:49.362Z,8.23
2023-04-12T18:24:16.968Z,8.20
2023-04-12T18:26:45.129Z,8.14
2023-04-12T18:29:14.431Z,8.21
2023-04-12T18:31:41.821Z,8.25
2023-04-12T18:34:08.958Z,8.24
2023-04-12T18:36:39.503Z,8.23
2023-04-12T18:39:07.994Z,8.22
2023-04-12T18:41:36.609Z,8.20
2023-04-12T18:44:04.146Z,8.18
2023-04-12T18:46:31.349Z,8.16
2023-04-12T18:48:58.688Z,8.17
2023-04-12T18:51:26.403Z,8.12
2023-04-12T18:53:53.621Z,8.10
2023-04-12T18:56:24.441Z,8.11
2023-04-12T18:58:55.724Z,8.07
2023-04-12T19:01:25.002Z,8.07
2023-04-12T19:03:52.867Z,8.05
2023-04-12T19:06:20.026Z,7.99
2023-04-12T19:08:48.360Z,7.99
2023-04-12T19:11:16.717Z,7.98
2023-04-12T19:13:43.997Z,7.98
2023-04-12T19:16:11.460Z,7.94
2023-04-12T19:18:38.641Z,7.95
2023-04-12T19:21:06.601Z,7.95
2023-04-12T19:23:33.861Z,7.93
2023-04-12T19:26:00.987Z,7.89
2023-04-12T19:28:28.337Z,7.91
2023-04-12T19:30:57.551Z,7.85
2023-04-12T19:33:24.983Z,7.80
2023-04-12T19:35:52.292Z,7.76
2023-04-12T19:38:21.218Z,7.73
2023-04-12T19:40:50.850Z,7.73
2023-04-12T19:43:21.022Z,7.70
2023-04-12T19:45:48.357Z,7.67
2023-04-12T19:48:17.012Z,7.64
2023-04-12T19:50:46.262Z,7.64
2023-04-12T19:53:17.829Z,7.64
2023-04-12T19:55:45.134Z,7.59
2023-04-12T19:58:13.557Z,7.58
2023-04-12T20:00:41.342Z,7.64
2023-04-12T20:03:09.789Z,7.63
2023-04-12T20:05:37.655Z,7.57
2023-04-12T20:08:04.841Z,7.56
2023-04-12T20:10:32.172Z,7.48
2023-04-12T20:12:59.352Z,7.54
2023-04-12T20:15:26.526Z,7.56
2023-04-12T20:17:53.974Z,7.56
2023-04-12T20:20:21.135Z,7.57
2023-04-12T20:22:51.875Z,7.49
2023-04-12T20:25:20.460Z,7.45
2023-04-12T20:27:52.416Z,7.42
2023-04-12T20:30:20.973Z,7.38
2023-04-12T20:32:54.467Z,7.42
2023-04-12T20:35:21.880Z,7.35
2023-04-12T20:37:51.006Z,7.38
2023-04-12T20:40:18.629Z,7.36
2023-04-12T20:42:46.004Z,7.34
2023-04-12T20:45:14.015Z,7.34
2023-04-12T20:47:41.571Z,7.30
2023-04-12T20:50:08.887Z,7.24
2023-04-12T20:52:36.441Z,7.23
2023-04-12T20:55:04.771Z,7.24
2023-04-12T20:57:31.873Z,7.25
2023-04-12T20:59:59.568Z,7.18
2023-04-12T21:02:27.461Z,7.13
2023-04-12T21:04:54.646Z,7.13
2023-04-12T21:07:25.893Z,7.13
2023-04-12T21:09:53.066Z,7.08
2023-04-12T21:12:20.213Z,7.12
2023-04-12T21:14:50.320Z,7.14
2023-04-12T21:17:22.310Z,7.11
2023-04-12T21:19:50.269Z,7.08
2023-04-12T21:22:17.404Z,7.08
2023-04-12T21:24:44.594Z,7.09
2023-04-12T21:27:12.143Z,7.08
2023-04-12T21:29:41.498Z,7.03
2023-04-12T21:32:09.321Z,7.04
2023-04-12T21:34:37.367Z,6.99
2023-04-12T21:37:05.395Z,6.93
2023-04-12T21:39:32.950Z,6.96
2023-04-12T21:42:00.143Z,6.92
2023-04-12T21:44:27.375Z,6.88
2023-04-12T21:46:54.686Z,6.86
2023-04-12T21:49:21.753Z,6.88
2023-04-12T21:51:49.248Z,6.89
2023-04-12T21:54:16.794Z,6.86
2023-04-12T21:56:43.942Z,6.83
2023-04-12T21:59:11.246Z,6.80
2023-04-12T22:01:38.548Z,6.79
2023-04-12T22:04:05.959Z,6.77
2023-04-12T22:06:33.140Z,6.78
2023-04-12T22:09:01.917Z,6.77
2023-04-12T22:11:29.881Z,6.80
2023-04-12T22:13:57.723Z,6.77
2023-04-12T22:16:25.008Z,6.73
2023-04-12T22:18:52.886Z,6.72
2023-04-12T22:21:20.681Z,6.68
2023-04-12T22:23:48.290Z,6.66
2023-04-12T22:26:15.423Z,6.62
2023-04-12T22:28:44.404Z,6.63
2023-04-12T22:31:14.371Z,6.68
2023-04-12T22:33:47.342Z,6.69
2023-04-12T22:36:14.459Z,6.66
2023-04-12T22:38:41.839Z,6.68
2023-04-12T22:41:09.009Z,6.67
2023-04-12T22:43:41.882Z,6.66
2023-04-12T22:46:15.829Z,6.66
2023-04-12T22:48:47.713Z,6.61
2023-04-12T22:51:15.176Z,6.58
2023-04-12T22:53:43.557Z,6.61
2023-04-12T22:56:11.325Z,6.60
2023-04-12T22:58:40.201Z,6.55
2023-04-12T23:01:07.550Z,6.57
2023-04-12T23:03:35.044Z,6.58
2023-04-12T23:06:02.164Z,6.53
2023-04-12T23:08:29.414Z,6.52
2023-04-12T23:11:02.726Z,6.53
2023-04-12T23:13:29.833Z,6.49
2023-04-12T23:15:57.711Z,6.50
2023-04-12T23:18:25.753Z,6.38
2023-04-12T23:20:53.986Z,6.16
2023-04-12T23:23:22.534Z,6.11
2023-04-12T23:25:49.624Z,5.97
2023-04-12T23:28:19.327Z,5.85
2023-04-12T23:30:47.884Z,5.79
2023-04-12T23:33:18.251Z,5.86
2023-04-12T23:35:46.255Z,5.84
2023-04-12T23:38:22.924Z,5.90
2023-04-12T23:40:56.285Z,5.85
2023-04-12T23:43:24.370Z,5.88
2023-04-12T23:45:52.134Z,5.83
2023-04-12T23:48:19.343Z,5.80
2023-04-12T23:50:46.675Z,5.70
2023-04-12T23:53:14.192Z,5.69
2023-04-12T23:55:41.965Z,5.69
2023-04-12T23:58:09.472Z,5.60
